Time;durP1;ratioP1;P1;durP2;ratioP2;P2;SDS_P1;SDS_P2;PMS_P1;PMS_P2;Temp;Humidity;BMP_temperature;BMP_pressure;BME280_temperature;BME280_humidity;BME280_pressure;Samples;Min_cycle;Max_cycle;Signal;HPM_P1;HPM_P2
2022/05/20 00:00:35;;;;;;;3.15;1.05;;;;;;;;;;5049604;28;20469;-77
2022/05/20 00:03:01;;;;;;;1.75;0.90;;;;;;;;;;5048204;28;20059;-76
2022/05/20 00:05:27;;;;;;;1.38;0.90;;;;;;;;;;5045736;28;20057;-77
2022/05/20 00:07:53;;;;;;;1.52;1.13;;;;;;;;;;5046057;28;20244;-77
2022/05/20 00:10:19;;;;;;;1.05;0.80;;;;;;;;;;5047875;28;20032;-77
2022/05/20 00:12:46;;;;;;;0.88;0.85;;;;;;;;;;5045881;28;20033;-78
2022/05/20 00:15:13;;;;;;;1.13;1.02;;;;;;;;;;5048729;28;20391;-76
2022/05/20 00:17:39;;;;;;;0.95;0.90;;;;;;;;;;5049252;28;20021;-76
2022/05/20 00:20:08;;;;;;;2.90;1.10;;;;;;;;;;5045877;28;20029;-77
2022/05/20 00:22:34;;;;;;;1.52;1.20;;;;;;;;;;5042095;28;20047;-77
2022/05/20 00:27:45;;;;;;;1.23;0.85;;;;;;;;;;5046990;28;20067;-78
2022/05/20 00:30:11;;;;;;;2.88;1.38;;;;;;;;;;5048589;28;20049;-76
2022/05/20 00:32:37;;;;;;;0.75;0.75;;;;;;;;;;5048632;28;20033;-76
2022/05/20 00:35:04;;;;;;;1.42;1.33;;;;;;;;;;5046282;28;20114;-77
2022/05/20 00:37:29;;;;;;;0.63;0.63;;;;;;;;;;5044858;28;20104;-76
2022/05/20 00:39:55;;;;;;;0.90;0.63;;;;;;;;;;5044741;28;20128;-76
2022/05/20 00:42:21;;;;;;;0.82;0.68;;;;;;;;;;5038654;28;20094;-77
2022/05/20 00:44:47;;;;;;;0.82;0.82;;;;;;;;;;5042986;28;20030;-75
2022/05/20 00:47:14;;;;;;;0.80;0.77;;;;;;;;;;5042836;28;20638;-76
2022/05/20 00:49:41;;;;;;;1.30;0.98;;;;;;;;;;5030334;28;20036;-76
2022/05/20 00:52:10;;;;;;;4.22;1.00;;;;;;;;;;5037001;28;20087;-77
2022/05/20 00:54:39;;;;;;;0.70;0.70;;;;;;;;;;5032314;28;20026;-76
2022/05/20 00:57:20;;;;;;;1.50;0.60;;;;;;;;;;5039220;28;20029;-76
2022/05/20 00:59:58;;;;;;;0.80;0.80;;;;;;;;;;5045911;28;20057;-77
2022/05/20 01:02:25;;;;;;;2.10;1.10;;;;;;;;;;5041477;28;20037;-77
2022/05/20 01:04:55;;;;;;;0.77;0.60;;;;;;;;;;5034820;28;20107;-76
2022/05/20 01:07:21;;;;;;;0.65;0.63;;;;;;;;;;5039030;28;20037;-77
2022/05/20 01:09:47;;;;;;;1.10;0.90;;;;;;;;;;5045401;28;20029;-77
2022/05/20 01:12:13;;;;;;;0.77;0.77;;;;;;;;;;5035681;28;20115;-78
2022/05/20 01:14:39;;;;;;;1.00;0.88;;;;;;;;;;5038035;28;20061;-77
2022/05/20 01:17:06;;;;;;;0.98;0.75;;;;;;;;;;5045932;28;20039;-76
2022/05/20 01:19:40;;;;;;;1.55;0.70;;;;;;;;;;5041726;28;20026;-76
2022/05/20 01:22:07;;;;;;;3.40;0.95;;;;;;;;;;5043433;28;20029;-77
2022/05/20 01:24:33;;;;;;;1.15;0.90;;;;;;;;;;5045324;28;20476;-76
2022/05/20 01:27:00;;;;;;;1.15;0.90;;;;;;;;;;5041811;28;20022;-77
2022/05/20 01:29:26;;;;;;;1.15;0.95;;;;;;;;;;5042232;28;20532;-76
2022/05/20 01:31:52;;;;;;;1.48;1.02;;;;;;;;;;5045866;28;20033;-77
2022/05/20 01:34:18;;;;;;;0.93;0.80;;;;;;;;;;5044350;28;20663;-77
2022/05/20 01:36:43;;;;;;;3.33;1.05;;;;;;;;;;5044666;28;20029;-77
2022/05/20 01:39:09;;;;;;;1.50;0.82;;;;;;;;;;5046398;28;20017;-77
2022/05/20 01:41:42;;;;;;;1.40;1.25;;;;;;;;;;5040168;28;20384;-77
2022/05/20 01:44:26;;;;;;;1.60;1.40;;;;;;;;;;5039527;28;20568;-77
2022/05/20 01:46:52;;;;;;;1.73;1.08;;;;;;;;;;5034322;28;20536;-77
2022/05/20 01:49:31;;;;;;;1.45;1.33;;;;;;;;;;5046040;28;20028;-78
2022/05/20 01:52:08;;;;;;;2.17;1.27;;;;;;;;;;5046050;28;20044;-78
2022/05/20 01:54:39;;;;;;;2.25;1.30;;;;;;;;;;5035085;28;20044;-77
2022/05/20 01:57:05;;;;;;;;;;;;;;;;;;5038871;28;20029;-78
2022/05/20 01:59:41;;;;;;;2.22;1.40;;;;;;;;;;5044553;28;20264;-77
2022/05/20 02:02:25;;;;;;;2.25;1.58;;;;;;;;;;5040907;28;20155;-78
2022/05/20 02:04:54;;;;;;;1.33;1.23;;;;;;;;;;5045811;28;20056;-77
2022/05/20 02:07:22;;;;;;;3.92;1.65;;;;;;;;;;5039244;28;20033;-76
2022/05/20 02:09:52;;;;;;;2.13;1.38;;;;;;;;;;5050065;28;20439;-79
2022/05/20 02:12:20;;;;;;;1.35;1.20;;;;;;;;;;5046964;28;20033;-77
2022/05/20 02:15:01;;;;;;;1.73;1.30;;;;;;;;;;5048879;28;20033;-77
2022/05/20 02:17:31;;;;;;;1.55;1.40;;;;;;;;;;5043748;28;20362;-78
2022/05/20 02:20:12;;;;;;;1.55;1.20;;;;;;;;;;5047239;28;20553;-78
2022/05/20 02:22:41;;;;;;;5.32;1.10;;;;;;;;;;5045760;28;20112;-77
2022/05/20 02:25:09;;;;;;;2.00;1.60;;;;;;;;;;5049563;28;20040;-77
2022/05/20 02:27:38;;;;;;;1.63;1.20;;;;;;;;;;5044563;28;20030;-78
2022/05/20 02:30:04;;;;;;;2.08;1.75;;;;;;;;;;5047697;28;20450;-77
2022/05/20 02:32:34;;;;;;;2.22;1.50;;;;;;;;;;5042899;28;20049;-77
2022/05/20 02:35:01;;;;;;;1.88;1.33;;;;;;;;;;5048269;28;20037;-78
2022/05/20 02:37:31;;;;;;;1.58;1.48;;;;;;;;;;5049676;28;20028;-79
2022/05/20 02:39:58;;;;;;;3.05;2.28;;;;;;;;;;5047691;28;20025;-78
2022/05/20 02:42:24;;;;;;;2.00;1.23;;;;;;;;;;5046794;28;20029;-76
2022/05/20 02:44:50;;;;;;;1.83;1.60;;;;;;;;;;5041622;28;20128;-77
2022/05/20 02:47:17;;;;;;;2.45;1.55;;;;;;;;;;5039148;28;20403;-76
2022/05/20 02:49:45;;;;;;;4.07;1.70;;;;;;;;;;5044963;28;20043;-77
2022/05/20 02:52:11;;;;;;;3.90;2.45;;;;;;;;;;5038824;28;20480;-77
2022/05/20 02:54:37;;;;;;;2.40;1.45;;;;;;;;;;5042553;28;20115;-77
2022/05/20 02:57:03;;;;;;;2.83;1.70;;;;;;;;;;5044401;28;20372;-77
2022/05/20 03:04:58;;;;;;;3.78;1.70;;;;;;;;;;5044033;28;20056;-77
2022/05/20 03:07:24;;;;;;;2.40;1.65;;;;;;;;;;5036263;28;20032;-78
2022/05/20 03:09:52;;;;;;;2.47;1.70;;;;;;;;;;5041554;28;20033;-77
2022/05/20 03:12:18;;;;;;;1.73;1.42;;;;;;;;;;5043759;28;20028;-77
2022/05/20 03:14:44;;;;;;;4.45;2.40;;;;;;;;;;5036058;28;20030;-76
2022/05/20 03:17:10;;;;;;;2.00;1.50;;;;;;;;;;5044998;28;20035;-76
2022/05/20 03:19:37;;;;;;;3.67;1.80;;;;;;;;;;5039815;28;20034;-76
2022/05/20 03:22:04;;;;;;;3.15;1.90;;;;;;;;;;5041942;28;20763;-76
2022/05/20 03:24:30;;;;;;;5.60;2.20;;;;;;;;;;5039737;28;20025;-78
2022/05/20 03:26:57;;;;;;;1.77;1.20;;;;;;;;;;5045674;28;20030;-77
2022/05/20 03:29:23;;;;;;;2.65;1.48;;;;;;;;;;5039014;28;20520;-78
2022/05/20 03:31:49;;;;;;;1.27;1.17;;;;;;;;;;5043982;28;20029;-77
2022/05/20 03:34:17;;;;;;;2.75;1.92;;;;;;;;;;5041188;28;20037;-77
2022/05/20 03:36:44;;;;;;;2.40;1.40;;;;;;;;;;5042141;28;20029;-76
2022/05/20 03:39:11;;;;;;;1.58;1.40;;;;;;;;;;5035219;28;20445;-77
2022/05/20 03:41:38;;;;;;;2.30;1.52;;;;;;;;;;5043201;28;20436;-76
2022/05/20 03:44:05;;;;;;;2.63;2.00;;;;;;;;;;5047229;28;20041;-78
2022/05/20 03:46:31;;;;;;;3.58;1.73;;;;;;;;;;5050036;28;20033;-76
2022/05/20 03:48:59;;;;;;;2.63;1.92;;;;;;;;;;5043872;28;20048;-77
2022/05/20 03:51:25;;;;;;;3.53;1.83;;;;;;;;;;5042578;28;20033;-77
2022/05/20 03:53:51;;;;;;;1.77;1.60;;;;;;;;;;5044635;28;20033;-77
2022/05/20 03:56:17;;;;;;;3.33;2.08;;;;;;;;;;5040094;28;20171;-76
2022/05/20 03:58:43;;;;;;;2.38;1.52;;;;;;;;;;5040288;28;20047;-76
2022/05/20 04:03:56;;;;;;;2.42;1.83;;;;;;;;;;5046300;28;20454;-78
2022/05/20 04:06:22;;;;;;;2.80;1.60;;;;;;;;;;5038136;28;20121;-78
2022/05/20 04:08:48;;;;;;;2.78;1.70;;;;;;;;;;5044046;28;20035;-77
2022/05/20 04:11:14;;;;;;;2.97;1.60;;;;;;;;;;5047332;28;20732;-77
2022/05/20 04:13:40;;;;;;;3.03;1.73;;;;;;;;;;5042243;28;20024;-77
2022/05/20 04:16:07;;;;;;;3.00;1.88;;;;;;;;;;5043050;28;20021;-77
2022/05/20 04:18:33;;;;;;;4.38;2.25;;;;;;;;;;5046869;28;20402;-77
2022/05/20 04:20:59;;;;;;;2.17;1.65;;;;;;;;;;5045237;28;20025;-77
2022/05/20 04:23:25;;;;;;;1.90;1.75;;;;;;;;;;5042891;28;20041;-77
2022/05/20 04:25:51;;;;;;;3.13;2.08;;;;;;;;;;5033609;28;20029;-76
2022/05/20 04:28:17;;;;;;;3.30;1.60;;;;;;;;;;5046076;28;20029;-78
2022/05/20 04:30:43;;;;;;;2.10;1.90;;;;;;;;;;5039942;28;20486;-78
2022/05/20 04:33:10;;;;;;;5.13;2.15;;;;;;;;;;5043762;28;20842;-76
2022/05/20 04:35:36;;;;;;;2.97;2.05;;;;;;;;;;5039964;28;20672;-77
2022/05/20 04:38:03;;;;;;;6.85;1.98;;;;;;;;;;5047662;28;20025;-78
2022/05/20 04:40:28;;;;;;;2.75;1.95;;;;;;;;;;5040631;28;20032;-77
2022/05/20 04:48:27;;;;;;;1.75;1.65;;;;;;;;;;5043074;28;20758;-78
2022/05/20 04:50:53;;;;;;;2.97;1.65;;;;;;;;;;5045298;28;20024;-77
2022/05/20 04:56:04;;;;;;;4.70;1.95;;;;;;;;;;5046015;28;20041;-77
2022/05/20 04:58:30;;;;;;;2.03;1.83;;;;;;;;;;5043421;28;20053;-78
2022/05/20 05:00:59;;;;;;;2.55;2.35;;;;;;;;;;5038821;28;20098;-78
2022/05/20 05:03:25;;;;;;;3.60;2.55;;;;;;;;;;5040597;28;20395;-77
2022/05/20 05:05:51;;;;;;;4.82;2.60;;;;;;;;;;5039213;28;20051;-77
2022/05/20 05:08:17;;;;;;;4.47;2.10;;;;;;;;;;5033395;28;20460;-78
2022/05/20 05:10:44;;;;;;;2.38;1.83;;;;;;;;;;5044087;28;20017;-78
2022/05/20 05:13:11;;;;;;;2.80;2.25;;;;;;;;;;5047681;28;20463;-77
2022/05/20 05:15:37;;;;;;;4.38;2.28;;;;;;;;;;5042594;28;20060;-78
2022/05/20 05:18:12;;;;;;;3.15;2.50;;;;;;;;;;5037920;28;20284;-78
2022/05/20 05:20:46;;;;;;;4.07;2.25;;;;;;;;;;5043525;28;20060;-76
2022/05/20 05:23:12;;;;;;;3.33;1.98;;;;;;;;;;5045139;28;20033;-77
2022/05/20 05:25:39;;;;;;;4.07;2.25;;;;;;;;;;5037186;28;20036;-76
2022/05/20 05:28:05;;;;;;;3.55;2.42;;;;;;;;;;5046928;28;20134;-76
2022/05/20 05:30:32;;;;;;;3.15;2.00;;;;;;;;;;5037621;28;20025;-77
2022/05/20 05:32:57;;;;;;;4.28;2.80;;;;;;;;;;5046986;28;20090;-77
2022/05/20 05:35:25;;;;;;;5.80;2.80;;;;;;;;;;5041108;28;20029;-76
2022/05/20 05:37:51;;;;;;;3.45;2.40;;;;;;;;;;5041454;28;20434;-77
2022/05/20 05:40:19;;;;;;;4.20;2.92;;;;;;;;;;5041068;28;20132;-77
2022/05/20 05:42:45;;;;;;;5.03;2.45;;;;;;;;;;5036027;28;20055;-77
2022/05/20 05:45:12;;;;;;;4.65;2.70;;;;;;;;;;5046468;28;20029;-75
2022/05/20 05:47:38;;;;;;;3.97;2.50;;;;;;;;;;5042448;28;20025;-79
2022/05/20 05:50:05;;;;;;;3.85;2.55;;;;;;;;;;5039653;28;20442;-79
2022/05/20 05:52:31;;;;;;;7.53;2.30;;;;;;;;;;5042080;28;20444;-77
2022/05/20 05:54:57;;;;;;;6.78;2.40;;;;;;;;;;5036857;28;20065;-79
2022/05/20 05:57:23;;;;;;;4.68;2.65;;;;;;;;;;5040092;28;20057;-84
2022/05/20 05:59:49;;;;;;;3.28;2.28;;;;;;;;;;5044586;28;20112;-78
2022/05/20 06:02:15;;;;;;;3.35;2.13;;;;;;;;;;5044066;28;20142;-77
2022/05/20 06:04:41;;;;;;;5.43;2.92;;;;;;;;;;5041711;28;20419;-78
2022/05/20 06:07:07;;;;;;;3.42;2.40;;;;;;;;;;5039874;28;20026;-79
2022/05/20 06:09:34;;;;;;;3.05;2.03;;;;;;;;;;5036021;28;20029;-79
2022/05/20 06:12:01;;;;;;;6.30;2.47;;;;;;;;;;5041436;28;20026;-78
2022/05/20 06:14:27;;;;;;;3.58;2.25;;;;;;;;;;5037764;28;20025;-79
2022/05/20 06:16:53;;;;;;;2.42;1.90;;;;;;;;;;5045043;28;20028;-79
2022/05/20 06:19:19;;;;;;;3.53;2.28;;;;;;;;;;5039988;28;20029;-76
2022/05/20 06:21:45;;;;;;;4.25;1.60;;;;;;;;;;5033699;28;20399;-80
2022/05/20 06:24:11;;;;;;;4.90;2.67;;;;;;;;;;5036037;28;20028;-83
2022/05/20 06:26:37;;;;;;;4.10;2.80;;;;;;;;;;5047572;28;20055;-79
2022/05/20 06:29:04;;;;;;;2.22;1.73;;;;;;;;;;5046256;28;20295;-79
2022/05/20 06:31:30;;;;;;;4.53;2.10;;;;;;;;;;5036239;28;20029;-79
2022/05/20 06:33:57;;;;;;;2.83;2.40;;;;;;;;;;5041235;28;20045;-80
2022/05/20 06:41:53;;;;;;;3.50;1.85;;;;;;;;;;5046063;28;20147;-83
2022/05/20 06:44:19;;;;;;;4.05;1.85;;;;;;;;;;5047163;28;20641;-83
2022/05/20 06:46:46;;;;;;;5.32;2.65;;;;;;;;;;5036262;28;20112;-81
2022/05/20 06:49:12;;;;;;;4.10;1.92;;;;;;;;;;5046353;28;20115;-80
2022/05/20 06:51:38;;;;;;;4.75;1.73;;;;;;;;;;5036948;28;20025;-77
2022/05/20 06:54:08;;;;;;;2.47;1.75;;;;;;;;;;5037277;28;20033;-77
2022/05/20 06:56:35;;;;;;;3.08;2.00;;;;;;;;;;5041803;28;20060;-76
2022/05/20 06:59:01;;;;;;;3.58;2.15;;;;;;;;;;5050621;28;20025;-76
2022/05/20 07:01:28;;;;;;;3.55;2.45;;;;;;;;;;5039220;28;20022;-76
2022/05/20 07:03:54;;;;;;;4.65;1.70;;;;;;;;;;5046216;28;20025;-76
2022/05/20 07:06:20;;;;;;;2.38;2.05;;;;;;;;;;5038594;28;20102;-76
2022/05/20 07:11:31;;;;;;;7.35;2.42;;;;;;;;;;5040441;28;20036;-77
2022/05/20 07:13:58;;;;;;;2.17;1.40;;;;;;;;;;5039243;28;20029;-76
2022/05/20 07:16:25;;;;;;;1.45;1.30;;;;;;;;;;5046834;28;20171;-76
2022/05/20 07:18:51;;;;;;;3.15;2.22;;;;;;;;;;5044397;28;20523;-76
2022/05/20 07:21:17;;;;;;;2.47;2.10;;;;;;;;;;5032283;28;20034;-77
2022/05/20 07:23:43;;;;;;;2.00;1.52;;;;;;;;;;5031449;28;20662;-76
2022/05/20 07:26:10;;;;;;;2.08;1.77;;;;;;;;;;5047762;28;20377;-76
2022/05/20 07:28:36;;;;;;;2.72;2.13;;;;;;;;;;5043503;28;20037;-76
2022/05/20 07:31:02;;;;;;;2.05;1.60;;;;;;;;;;5050139;28;20390;-76
2022/05/20 07:33:28;;;;;;;4.45;2.33;;;;;;;;;;5033963;28;20049;-76
2022/05/20 07:35:55;;;;;;;3.40;2.35;;;;;;;;;;5038779;28;20479;-76
2022/05/20 07:38:21;;;;;;;2.53;1.90;;;;;;;;;;5043085;28;20025;-76
2022/05/20 07:40:47;;;;;;;2.53;1.98;;;;;;;;;;5050831;28;20104;-76
2022/05/20 07:43:13;;;;;;;2.78;2.15;;;;;;;;;;5045722;28;20079;-76
2022/05/20 07:45:39;;;;;;;3.22;1.42;;;;;;;;;;5045767;28;20106;-76
2022/05/20 07:48:05;;;;;;;2.28;1.75;;;;;;;;;;5051096;28;20033;-76
2022/05/20 07:50:34;;;;;;;2.80;1.67;;;;;;;;;;5037083;28;20029;-76
2022/05/20 07:55:46;;;;;;;2.90;1.83;;;;;;;;;;5048009;28;20490;-76
2022/05/20 07:58:13;;;;;;;2.33;1.83;;;;;;;;;;5032968;28;20480;-76
2022/05/20 08:00:39;;;;;;;1.88;1.40;;;;;;;;;;5046368;28;20021;-75
2022/05/20 08:03:06;;;;;;;1.88;1.60;;;;;;;;;;5050013;28;20139;-76
2022/05/20 08:05:33;;;;;;;4.07;2.55;;;;;;;;;;5047025;28;20112;-76
2022/05/20 08:08:02;;;;;;;2.35;1.65;;;;;;;;;;5046075;28;20046;-76
2022/05/20 08:10:29;;;;;;;2.50;1.85;;;;;;;;;;5049362;28;20449;-76
2022/05/20 08:12:56;;;;;;;1.35;1.25;;;;;;;;;;5042543;28;20029;-76
2022/05/20 08:15:22;;;;;;;1.30;1.20;;;;;;;;;;5037335;28;20036;-77
2022/05/20 08:17:49;;;;;;;2.80;1.75;;;;;;;;;;5039125;28;20483;-79
2022/05/20 08:20:21;;;;;;;2.22;1.52;;;;;;;;;;5043760;28;20029;-76
2022/05/20 08:22:47;;;;;;;3.75;2.00;;;;;;;;;;5047612;28;20058;-78
2022/05/20 08:25:13;;;;;;;2.10;1.65;;;;;;;;;;5036099;28;20029;-77
2022/05/20 08:27:40;;;;;;;6.28;1.88;;;;;;;;;;5047873;28;22025;-77
2022/05/20 08:30:10;;;;;;;1.90;1.35;;;;;;;;;;5044716;28;20069;-77
2022/05/20 08:32:36;;;;;;;1.70;1.60;;;;;;;;;;5048716;28;20057;-80
2022/05/20 08:35:04;;;;;;;1.60;1.27;;;;;;;;;;5042729;28;20068;-79
2022/05/20 08:37:30;;;;;;;5.38;1.75;;;;;;;;;;5041206;28;20438;-79
2022/05/20 08:39:56;;;;;;;2.08;1.27;;;;;;;;;;5043078;28;20024;-76
2022/05/20 08:42:24;;;;;;;5.72;1.58;;;;;;;;;;5039736;28;20025;-78
2022/05/20 08:44:50;;;;;;;1.70;1.33;;;;;;;;;;5042852;28;20060;-76
2022/05/20 08:47:16;;;;;;;1.80;1.35;;;;;;;;;;5045222;28;20066;-75
2022/05/20 08:49:42;;;;;;;1.70;1.33;;;;;;;;;;5041423;28;20033;-76
2022/05/20 08:52:08;;;;;;;3.03;1.65;;;;;;;;;;5039022;28;20053;-76
2022/05/20 08:54:34;;;;;;;2.10;1.50;;;;;;;;;;5041383;28;20057;-76
2022/05/20 08:57:12;;;;;;;3.08;2.47;;;;;;;;;;5046261;28;20029;-75
2022/05/20 08:59:38;;;;;;;1.88;1.20;;;;;;;;;;5046216;28;20091;-74
2022/05/20 09:02:04;;;;;;;3.97;1.92;;;;;;;;;;5044049;28;20487;-73
2022/05/20 09:04:30;;;;;;;1.90;1.08;;;;;;;;;;5039103;28;20057;-76
2022/05/20 09:07:01;;;;;;;1.85;1.30;;;;;;;;;;5038309;28;20039;-78
2022/05/20 09:09:28;;;;;;;7.78;1.67;;;;;;;;;;5038661;28;20396;-76
2022/05/20 09:11:55;;;;;;;2.42;1.48;;;;;;;;;;5040486;28;20021;-77
2022/05/20 09:17:08;;;;;;;2.42;1.65;;;;;;;;;;5041232;28;20083;-75
2022/05/20 09:19:34;;;;;;;1.13;0.98;;;;;;;;;;5045668;28;20104;-79
2022/05/20 09:22:04;;;;;;;1.60;1.10;;;;;;;;;;5041444;28;20105;-78
2022/05/20 09:24:36;;;;;;;1.50;1.40;;;;;;;;;;5047477;28;20033;-79
2022/05/20 09:27:05;;;;;;;1.33;1.15;;;;;;;;;;5046505;28;20492;-77
2022/05/20 09:29:37;;;;;;;1.83;1.38;;;;;;;;;;5038892;28;20055;-76
2022/05/20 09:32:05;;;;;;;3.72;1.40;;;;;;;;;;5041829;28;20034;-77
2022/05/20 09:34:34;;;;;;;1.23;1.00;;;;;;;;;;5041433;28;20368;-76
2022/05/20 09:37:01;;;;;;;1.65;1.20;;;;;;;;;;5041569;28;20534;-77
2022/05/20 09:39:27;;;;;;;1.73;1.30;;;;;;;;;;5045290;28;20464;-86
2022/05/20 09:41:54;;;;;;;1.90;1.35;;;;;;;;;;5047139;28;20031;-77
2022/05/20 09:44:23;;;;;;;1.38;1.13;;;;;;;;;;5046427;28;20123;-80
2022/05/20 09:46:51;;;;;;;1.30;1.20;;;;;;;;;;5046683;28;20064;-78
2022/05/20 09:49:23;;;;;;;1.50;1.17;;;;;;;;;;5046921;28;20396;-83
2022/05/20 09:51:51;;;;;;;1.48;1.00;;;;;;;;;;5043732;28;20696;-80
2022/05/20 09:54:17;;;;;;;2.78;1.40;;;;;;;;;;5044991;28;20127;-79
2022/05/20 09:56:56;;;;;;;1.15;1.05;;;;;;;;;;5045061;28;20461;-79
2022/05/20 09:59:22;;;;;;;1.20;1.10;;;;;;;;;;5047042;28;20029;-80
2022/05/20 10:01:53;;;;;;;1.35;1.02;;;;;;;;;;5048981;28;20100;-79
2022/05/20 10:04:24;;;;;;;1.83;1.40;;;;;;;;;;5045061;28;20064;-78
2022/05/20 10:06:52;;;;;;;1.88;1.35;;;;;;;;;;5047213;28;20033;-78
2022/05/20 10:09:38;;;;;;;1.33;0.95;;;;;;;;;;5046371;28;20091;-79
2022/05/20 10:12:04;;;;;;;0.80;0.80;;;;;;;;;;5043953;28;20033;-78
2022/05/20 10:14:43;;;;;;;2.38;0.95;;;;;;;;;;5040150;28;20074;-79
2022/05/20 10:17:24;;;;;;;5.97;1.05;;;;;;;;;;5036658;28;20052;-80
2022/05/20 10:20:07;;;;;;;1.27;1.17;;;;;;;;;;5045178;28;20484;-85
2022/05/20 10:22:40;;;;;;;3.17;1.30;;;;;;;;;;5046239;28;20033;-86
2022/05/20 10:25:26;;;;;;;1.90;1.33;;;;;;;;;;5039404;28;20103;-84
2022/05/20 10:28:02;;;;;;;1.52;1.05;;;;;;;;;;5034991;28;21575;-84
2022/05/20 10:33:24;;;;;;;1.38;1.10;;;;;;;;;;5045315;28;20657;-85
2022/05/20 10:35:50;;;;;;;1.02;0.90;;;;;;;;;;5043175;28;20519;-87
2022/05/20 10:38:35;;;;;;;2.13;1.25;;;;;;;;;;5047633;28;20037;-86
2022/05/20 10:41:18;;;;;;;1.35;1.20;;;;;;;;;;5056393;28;20017;-83
2022/05/20 10:49:46;;;;;;;0.65;0.65;;;;;;;;;;5036318;28;20503;-83
2022/05/20 10:52:12;;;;;;;1.10;0.90;;;;;;;;;;5043575;28;20021;-88
2022/05/20 10:54:52;;;;;;;1.25;1.00;;;;;;;;;;5041678;28;20094;-83
2022/05/20 10:57:36;;;;;;;1.42;1.30;;;;;;;;;;5044603;28;20029;-88
2022/05/20 11:00:19;;;;;;;0.82;0.80;;;;;;;;;;5038476;28;20388;-84
2022/05/20 11:02:45;;;;;;;1.58;1.02;;;;;;;;;;5038626;28;20151;-84
2022/05/20 11:05:46;;;;;;;1.17;1.02;;;;;;;;;;5044640;28;20140;-84
2022/05/20 11:08:33;;;;;;;1.05;0.95;;;;;;;;;;5007277;28;20366;-84
2022/05/20 11:11:17;;;;;;;1.00;1.00;;;;;;;;;;5044320;28;20802;-83
2022/05/20 11:13:53;;;;;;;2.50;0.85;;;;;;;;;;5045681;28;20033;-83
2022/05/20 11:16:18;;;;;;;2.42;1.13;;;;;;;;;;5045536;28;20419;-84
2022/05/20 11:18:52;;;;;;;1.23;1.00;;;;;;;;;;5037900;28;20028;-83
2022/05/20 11:21:37;;;;;;;1.13;0.98;;;;;;;;;;5038139;28;20116;-83
2022/05/20 11:24:14;;;;;;;1.00;0.90;;;;;;;;;;5051243;28;20037;-85
2022/05/20 11:26:58;;;;;;;0.73;0.73;;;;;;;;;;5052118;28;20080;-85
2022/05/20 11:29:50;;;;;;;1.20;1.10;;;;;;;;;;5053143;28;20025;-82
2022/05/20 11:32:33;;;;;;;0.95;0.90;;;;;;;;;;5044130;28;20040;-85
2022/05/20 11:35:14;;;;;;;0.77;0.77;;;;;;;;;;5034264;28;20070;-84
2022/05/20 11:37:40;;;;;;;;;;;;;;;;;;5047250;28;20029;-86
2022/05/20 11:40:25;;;;;;;0.88;0.88;;;;;;;;;;5043077;28;20289;-84
2022/05/20 11:43:14;;;;;;;1.25;1.08;;;;;;;;;;5039257;28;20025;-86
2022/05/20 11:45:58;;;;;;;5.60;1.52;;;;;;;;;;5050613;28;20036;-85
2022/05/20 11:48:43;;;;;;;1.33;0.60;;;;;;;;;;5043613;28;20499;-85
2022/05/20 11:51:14;;;;;;;0.85;0.82;;;;;;;;;;5044668;28;20029;-85
2022/05/20 11:53:50;;;;;;;0.70;0.70;;;;;;;;;;5041642;28;20029;-84
2022/05/20 11:56:20;;;;;;;1.20;0.80;;;;;;;;;;5033340;28;20068;-86
2022/05/20 11:58:52;;;;;;;0.80;0.80;;;;;;;;;;5048612;28;20056;-89
2022/05/20 12:01:19;;;;;;;1.13;1.00;;;;;;;;;;5043370;28;20116;-85
2022/05/20 12:06:31;;;;;;;2.20;1.73;;;;;;;;;;5046354;28;21103;-86
2022/05/20 12:08:58;;;;;;;0.70;0.70;;;;;;;;;;5046814;28;20133;-84
2022/05/20 12:11:26;;;;;;;1.38;1.20;;;;;;;;;;5044756;28;20017;-83
2022/05/20 12:13:59;;;;;;;1.13;0.85;;;;;;;;;;5039316;28;20472;-84
2022/05/20 12:16:25;;;;;;;0.98;0.88;;;;;;;;;;5046449;28;20036;-84
2022/05/20 12:24:34;;;;;;;0.82;0.82;;;;;;;;;;5028761;28;20072;-84
2022/05/20 12:27:00;;;;;;;3.15;0.75;;;;;;;;;;5045977;28;20033;-85
2022/05/20 12:29:35;;;;;;;0.80;0.80;;;;;;;;;;5046913;28;20120;-84
2022/05/20 12:32:21;;;;;;;1.95;0.90;;;;;;;;;;5041953;28;20429;-84
2022/05/20 12:35:16;;;;;;;1.08;0.98;;;;;;;;;;5045432;28;20040;-84
2022/05/20 12:37:42;;;;;;;0.80;0.80;;;;;;;;;;5011316;28;20096;-87
2022/05/20 12:40:26;;;;;;;0.85;0.80;;;;;;;;;;5043303;28;20361;-84
2022/05/20 12:42:59;;;;;;;0.80;0.80;;;;;;;;;;5046736;28;20025;-85
2022/05/20 12:45:27;;;;;;;1.00;0.90;;;;;;;;;;5048616;28;20025;-87
2022/05/20 12:47:54;;;;;;;0.80;0.77;;;;;;;;;;5034731;28;20152;-85
2022/05/20 12:50:26;;;;;;;1.17;1.08;;;;;;;;;;5039419;28;20041;-86
2022/05/20 12:52:53;;;;;;;1.30;1.20;;;;;;;;;;5048826;28;20013;-85
2022/05/20 12:55:22;;;;;;;1.50;1.02;;;;;;;;;;5045259;28;20032;-88
2022/05/20 12:58:01;;;;;;;1.20;1.10;;;;;;;;;;5044660;28;20484;-85
2022/05/20 13:00:29;;;;;;;2.13;0.95;;;;;;;;;;5035092;28;20032;-84
2022/05/20 13:02:58;;;;;;;0.80;0.80;;;;;;;;;;5036644;28;20025;-87
2022/05/20 13:05:26;;;;;;;1.60;1.00;;;;;;;;;;5030973;28;20437;-84
2022/05/20 13:07:53;;;;;;;1.00;0.90;;;;;;;;;;5042467;28;20040;-85
2022/05/20 13:10:25;;;;;;;1.00;0.88;;;;;;;;;;5044701;28;20021;-84
2022/05/20 13:12:52;;;;;;;0.75;0.75;;;;;;;;;;5035057;28;20104;-83
2022/05/20 13:15:19;;;;;;;0.95;0.90;;;;;;;;;;5048042;28;20025;-87
2022/05/20 13:17:51;;;;;;;1.00;0.90;;;;;;;;;;5031088;28;20025;-85
2022/05/20 13:20:17;;;;;;;1.00;0.80;;;;;;;;;;5031915;28;20522;-85
2022/05/20 13:22:50;;;;;;;0.70;0.70;;;;;;;;;;5034936;28;20021;-87
2022/05/20 13:25:17;;;;;;;1.30;0.73;;;;;;;;;;5045889;28;20032;-84
2022/05/20 13:27:47;;;;;;;0.77;0.77;;;;;;;;;;5048486;28;20025;-85
2022/05/20 13:30:16;;;;;;;1.23;0.95;;;;;;;;;;5042706;28;20095;-89
2022/05/20 13:32:42;;;;;;;1.25;1.15;;;;;;;;;;5042803;28;20116;-84
2022/05/20 13:35:09;;;;;;;1.25;1.15;;;;;;;;;;5038521;28;20123;-86
2022/05/20 13:37:45;;;;;;;1.10;1.00;;;;;;;;;;5038686;28;20021;-87
2022/05/20 13:40:14;;;;;;;2.08;1.10;;;;;;;;;;5042910;28;20017;-86
2022/05/20 13:42:41;;;;;;;0.93;0.90;;;;;;;;;;5033335;28;20054;-85
2022/05/20 13:45:09;;;;;;;0.63;0.63;;;;;;;;;;5034228;28;20067;-84
2022/05/20 13:50:21;;;;;;;0.70;0.70;;;;;;;;;;5037595;28;20044;-85
2022/05/20 13:52:49;;;;;;;0.75;0.75;;;;;;;;;;5035066;28;20033;-84
2022/05/20 13:55:15;;;;;;;0.50;0.50;;;;;;;;;;5034208;28;20507;-88
2022/05/20 13:57:43;;;;;;;0.85;0.50;;;;;;;;;;5031728;28;20072;-85
2022/05/20 14:00:22;;;;;;;0.57;0.57;;;;;;;;;;5048462;28;20728;-85
2022/05/20 14:02:54;;;;;;;0.60;0.50;;;;;;;;;;5048078;28;20086;-88
2022/05/20 14:05:24;;;;;;;0.65;0.65;;;;;;;;;;5046020;28;20460;-85
2022/05/20 14:07:52;;;;;;;0.55;0.55;;;;;;;;;;5032278;28;20071;-85
2022/05/20 14:10:26;;;;;;;0.75;0.70;;;;;;;;;;5049139;28;20048;-85
2022/05/20 14:13:05;;;;;;;0.70;0.70;;;;;;;;;;5047471;28;20025;-86
2022/05/20 14:15:34;;;;;;;1.05;0.90;;;;;;;;;;5038375;28;20061;-85
2022/05/20 14:18:06;;;;;;;0.70;0.70;;;;;;;;;;5029163;28;20024;-85
2022/05/20 14:20:35;;;;;;;0.73;0.60;;;;;;;;;;5028960;28;20030;-84
2022/05/20 14:23:01;;;;;;;2.50;0.90;;;;;;;;;;5044799;28;20036;-86
2022/05/20 14:25:30;;;;;;;0.80;0.80;;;;;;;;;;5033014;28;20033;-85
2022/05/20 14:28:16;;;;;;;1.20;0.65;;;;;;;;;;5046772;28;20040;-85
2022/05/20 14:30:50;;;;;;;1.13;0.85;;;;;;;;;;5041677;28;20087;-85
2022/05/20 14:33:19;;;;;;;0.70;0.70;;;;;;;;;;5035417;28;20041;-86
2022/05/20 14:35:46;;;;;;;1.60;1.02;;;;;;;;;;5038850;28;20034;-86
2022/05/20 14:38:14;;;;;;;0.47;0.47;;;;;;;;;;5031138;28;20468;-85
2022/05/20 14:40:40;;;;;;;0.60;0.60;;;;;;;;;;5049930;28;20032;-85
2022/05/20 14:43:07;;;;;;;1.02;0.77;;;;;;;;;;5037144;28;20033;-85
2022/05/20 14:45:40;;;;;;;0.82;0.80;;;;;;;;;;5030621;28;20030;-84
2022/05/20 14:48:09;;;;;;;0.63;0.55;;;;;;;;;;5044580;28;20037;-87
2022/05/20 14:50:35;;;;;;;0.80;0.80;;;;;;;;;;5039732;28;20029;-89
2022/05/20 14:53:06;;;;;;;0.73;0.73;;;;;;;;;;5028410;28;20060;-86
2022/05/20 14:55:48;;;;;;;4.68;0.82;;;;;;;;;;5040371;28;20033;-85
2022/05/20 14:58:16;;;;;;;2.58;1.00;;;;;;;;;;5034489;28;20041;-85
2022/05/20 15:01:00;;;;;;;0.93;0.82;;;;;;;;;;5026543;28;20060;-83
2022/05/20 15:03:44;;;;;;;1.33;0.90;;;;;;;;;;5034828;28;20049;-84
2022/05/20 15:06:15;;;;;;;0.80;0.80;;;;;;;;;;5045758;28;20103;-82
2022/05/20 15:08:41;;;;;;;0.80;0.73;;;;;;;;;;5044382;28;20090;-83
2022/05/20 15:11:12;;;;;;;0.90;0.90;;;;;;;;;;5041812;28;20040;-81
2022/05/20 15:13:38;;;;;;;0.82;0.82;;;;;;;;;;5031922;28;20028;-77
2022/05/20 15:16:04;;;;;;;0.75;0.73;;;;;;;;;;5042757;28;20037;-81
2022/05/20 15:18:30;;;;;;;0.85;0.82;;;;;;;;;;5046541;28;20511;-78
2022/05/20 15:20:58;;;;;;;1.65;0.77;;;;;;;;;;5042596;28;20519;-84
2022/05/20 15:23:40;;;;;;;0.82;0.82;;;;;;;;;;5037217;28;20044;-80
2022/05/20 15:26:08;;;;;;;0.70;0.70;;;;;;;;;;5050409;28;20064;-80
2022/05/20 15:28:51;;;;;;;2.17;0.85;;;;;;;;;;5035868;28;20032;-78
2022/05/20 15:36:55;;;;;;;3.08;2.35;;;;;;;;;;5047675;28;20063;-78
2022/05/20 15:39:25;;;;;;;2.97;1.95;;;;;;;;;;5036793;28;20029;-78
2022/05/20 15:41:51;;;;;;;2.17;1.80;;;;;;;;;;5050079;28;20021;-79
2022/05/20 15:44:17;;;;;;;4.45;3.08;;;;;;;;;;5039017;28;20029;-80
2022/05/20 15:46:43;;;;;;;1.15;1.05;;;;;;;;;;5038342;28;20471;-80
2022/05/20 15:49:08;;;;;;;1.17;1.08;;;;;;;;;;5048319;28;20029;-83
2022/05/20 15:51:35;;;;;;;4.38;2.10;;;;;;;;;;5042719;28;20039;-84
2022/05/20 15:54:01;;;;;;;1.63;1.50;;;;;;;;;;5031456;28;20757;-84